• Join FlightAware (Why Join?)
  • Login
  • US Flag 
08:26PM EDT


 

Airport Tracker/Info


-or-


 

Live Flight TrackerFlight Track Log ✈ QLK380 ✈ 09-Jul-2013 ✈ YBBN / BNE - YHBA / HVB

Flight Track Log - Related Links

Times and Time Zones

All times are in EDT time to prevent confusion due to time zone crossing. See the QLK380 flight status page for this flight to view local times or setup timezone preferences in your user account.

Time Position Orientation Groundspeed Altitude Reporting Facility
EDT Latitude Longitude Course Direction KTS MPH feet Rate Location/Type
03:02AM -27.4130 153.1135 273° West 128 147 900  Level Aus ATC (RADAR)
03:03AM -27.4118 153.0869 273° West 154 177 1,600 1,560 Climbing Aus ATC (RADAR)
03:04AM -27.3847 153.0573 316° Northwest 172 198 3,000 1,740 Climbing Aus ATC (RADAR)
03:04AM -27.3637 153.0336 315° West 177 204 3,900 1,620 Climbing Aus ATC (RADAR)
03:05AM -27.3269 153.0372 North 175 201 5,200 1,620 Climbing Aus ATC (RADAR)
03:06AM -27.2788 153.0412 North 176 203 6,800 1,440 Climbing Aus ATC (RADAR)
03:07AM -27.2241 153.0457 North 184 212 8,300 1,260 Climbing Aus ATC (RADAR)
03:08AM -27.1791 153.0504 North 196 226 9,300 1,080 Climbing Aus ATC (RADAR)
03:09AM -27.1364 153.0530 North 204 235 10,100 1,080 Climbing Aus ATC (RADAR)
03:09AM -27.1032 153.0552 North 204 235 10,800 1,080 Climbing Aus ATC (RADAR)
03:10AM -27.0553 153.0589 North 207 238 11,700 960 Climbing Aus ATC (RADAR)
03:11AM -26.9980 153.0620 North 207 238 12,600 840 Climbing Aus ATC (RADAR)
03:12AM -26.9437 153.0660 North 214 246 13,400 720 Climbing Aus ATC (RADAR)
03:13AM -26.8843 153.0598 355° North 214 246 14,100 660 Climbing Aus ATC (RADAR)
03:13AM -26.8440 153.0547 354° North 219 252 14,500 240 Climbing Aus ATC (RADAR)
03:14AM -26.8054 153.0499 354° North 237 273 14,400 -120 Descending Aus ATC (RADAR)
03:15AM -26.7533 153.0443 354° North 251 289 14,400  Level Aus ATC (RADAR)
03:16AM -26.6817 153.0363 354° North 260 299 14,400  Level Aus ATC (RADAR)
03:17AM -26.5732 153.0224 353° North 261 300 14,400  Level Aus ATC (RADAR)
03:18AM -26.5100 153.0006 343° North 258 297 14,400  Level Aus ATC (RADAR)
03:19AM -26.4636 152.9866 345° North 258 297 14,400  Level Aus ATC (RADAR)
03:20AM -26.4106 152.9711 345° North 262 302 14,400  Level Aus ATC (RADAR)
03:21AM -26.3400 152.9495 345° North 263 303 14,400  Level Aus ATC (RADAR)
03:22AM -26.2570 152.9252 345° North 265 305 14,400  Level Aus ATC (RADAR)
03:22AM -26.2094 152.9113 345° North 265 305 14,400  Level Aus ATC (RADAR)
03:23AM -26.1681 152.8985 344° North 264 304 14,400  Level Aus ATC (RADAR)
03:24AM -26.1268 152.8867 346° North 263 303 14,400  Level Aus ATC (RADAR)
03:24AM -26.0732 152.8707 345° North 265 305 14,400  Level Aus ATC (RADAR)
03:25AM -26.0021 152.8497 345° North 263 303 14,400  Level Aus ATC (RADAR)
03:26AM -25.9367 152.8301 345° North 264 304 14,400  Level Aus ATC (RADAR)
03:27AM -25.8955 152.8180 345° North 262 302 14,400  Level Aus ATC (RADAR)
03:28AM -25.8483 152.8043 345° North 262 302 14,400  Level Aus ATC (RADAR)
03:29AM -25.7772 152.7839 346° North 263 303 14,400 -420 Level Aus ATC (RADAR)
03:29AM -25.7175 152.7662 345° North 268 308 13,700 -1,080 Descending Aus ATC (RADAR)
03:30AM -25.6740 152.7522 344° North 280 322 12,900 -1,500 Descending Aus ATC (RADAR)
03:31AM -25.5683 152.7218 345° North 267 307 10,800 -1,500 Descending Aus ATC (RADAR)
03:32AM -25.5346 152.7114 345° North 251 289 10,100 -1,500 Descending Aus ATC (RADAR)
03:33AM -25.4541 152.6907 347° North 257 296 8,400 -1,440 Descending Aus ATC (RADAR)
03:34AM -25.4006 152.6732 344° North 238 274 7,300 -1,380 Descending Aus ATC (RADAR)
03:35AM -25.3583 152.6606 345° North 211 243 6,300 -1,380 Descending Aus ATC (RADAR)
03:38AM -25.3231 152.8238 85° East -1,860 Descending Aus ATC (Calculated)
03:40AM -25.3189 152.8803 85° East  Level Estimated
03:41AM -25.3189 152.8803 299° West  Level Estimated
03:42AM -25.3189 152.8803 299° West  Level Estimated
03:43AM -25.3189 152.8803 299° West  Level Estimated
03:44AM -25.3189 152.8803 299° West  Level Estimated
03:45AM -25.3189 152.8803 299° West  Level Estimated
03:46AM -25.3189 152.8803 299° West  Level Estimated